sensor_id;sensor_type;location;lat;lon;timestamp;temperature;humidity
9730;DHT22;4904;49.152;11.004;2022-08-19T00:01:52;22.70;99.90
9730;DHT22;4904;49.152;11.004;2022-08-19T00:04:21;22.70;99.90
9730;DHT22;4904;49.152;11.004;2022-08-19T00:06:48;22.70;99.90
9730;DHT22;4904;49.152;11.004;2022-08-19T00:09:17;22.70;99.90
9730;DHT22;4904;49.152;11.004;2022-08-19T00:11:45;22.80;99.90
9730;DHT22;4904;49.152;11.004;2022-08-19T00:14:15;22.80;99.90
9730;DHT22;4904;49.152;11.004;2022-08-19T00:16:44;22.70;99.90
9730;DHT22;4904;49.152;11.004;2022-08-19T00:19:13;22.70;99.90
9730;DHT22;4904;49.152;11.004;2022-08-19T00:21:40;22.70;99.90
9730;DHT22;4904;49.152;11.004;2022-08-19T00:24:07;22.70;99.90
9730;DHT22;4904;49.152;11.004;2022-08-19T00:26:35;22.70;99.90
9730;DHT22;4904;49.152;11.004;2022-08-19T00:29:07;22.70;99.90
9730;DHT22;4904;49.152;11.004;2022-08-19T00:31:36;22.70;99.90
9730;DHT22;4904;49.152;11.004;2022-08-19T00:34:03;22.60;99.90
9730;DHT22;4904;49.152;11.004;2022-08-19T00:36:30;22.50;99.90
9730;DHT22;4904;49.152;11.004;2022-08-19T00:38:58;22.40;99.90
9730;DHT22;4904;49.152;11.004;2022-08-19T00:41:25;22.30;99.90
9730;DHT22;4904;49.152;11.004;2022-08-19T00:44:12;22.40;99.90
9730;DHT22;4904;49.152;11.004;2022-08-19T00:46:45;22.30;99.90
9730;DHT22;4904;49.152;11.004;2022-08-19T00:49:15;22.30;99.90
9730;DHT22;4904;49.152;11.004;2022-08-19T00:51:45;22.30;99.90
9730;DHT22;4904;49.152;11.004;2022-08-19T00:54:13;22.40;99.90
9730;DHT22;4904;49.152;11.004;2022-08-19T00:56:41;22.40;99.90
9730;DHT22;4904;49.152;11.004;2022-08-19T00:59:09;22.30;99.90
9730;DHT22;4904;49.152;11.004;2022-08-19T01:01:36;22.30;99.90
9730;DHT22;4904;49.152;11.004;2022-08-19T01:04:04;22.30;99.90
9730;DHT22;4904;49.152;11.004;2022-08-19T01:06:32;22.20;99.90
9730;DHT22;4904;49.152;11.004;2022-08-19T01:08:59;22.20;99.90
9730;DHT22;4904;49.152;11.004;2022-08-19T01:11:26;22.20;99.90
9730;DHT22;4904;49.152;11.004;2022-08-19T01:13:54;22.20;99.90
9730;DHT22;4904;49.152;11.004;2022-08-19T01:16:23;22.20;99.90
9730;DHT22;4904;49.152;11.004;2022-08-19T01:18:51;22.20;99.90
9730;DHT22;4904;49.152;11.004;2022-08-19T01:21:23;22.10;99.90
9730;DHT22;4904;49.152;11.004;2022-08-19T01:23:54;22.10;99.90
9730;DHT22;4904;49.152;11.004;2022-08-19T01:26:23;22.10;99.90
9730;DHT22;4904;49.152;11.004;2022-08-19T01:28:55;22.00;99.90
9730;DHT22;4904;49.152;11.004;2022-08-19T01:31:26;22.10;99.90
9730;DHT22;4904;49.152;11.004;2022-08-19T01:33:57;22.10;99.90
9730;DHT22;4904;49.152;11.004;2022-08-19T01:36:28;22.10;99.90
9730;DHT22;4904;49.152;11.004;2022-08-19T01:38:57;22.00;99.90
9730;DHT22;4904;49.152;11.004;2022-08-19T01:41:25;21.90;99.90
9730;DHT22;4904;49.152;11.004;2022-08-19T01:43:53;21.90;99.90
9730;DHT22;4904;49.152;11.004;2022-08-19T01:46:21;21.90;99.90
9730;DHT22;4904;49.152;11.004;2022-08-19T01:48:48;21.80;99.90
9730;DHT22;4904;49.152;11.004;2022-08-19T01:51:15;21.90;99.90
9730;DHT22;4904;49.152;11.004;2022-08-19T01:53:42;21.90;99.90
9730;DHT22;4904;49.152;11.004;2022-08-19T01:56:10;22.00;99.90
9730;DHT22;4904;49.152;11.004;2022-08-19T01:58:40;22.00;99.90
9730;DHT22;4904;49.152;11.004;2022-08-19T02:01:08;21.90;99.90
9730;DHT22;4904;49.152;11.004;2022-08-19T02:03:35;21.80;99.90
9730;DHT22;4904;49.152;11.004;2022-08-19T02:06:02;21.80;99.90
9730;DHT22;4904;49.152;11.004;2022-08-19T02:08:32;21.80;99.90
9730;DHT22;4904;49.152;11.004;2022-08-19T02:10:59;21.80;99.90
9730;DHT22;4904;49.152;11.004;2022-08-19T02:13:28;21.80;99.90
9730;DHT22;4904;49.152;11.004;2022-08-19T02:15:55;21.70;99.90
9730;DHT22;4904;49.152;11.004;2022-08-19T02:18:23;21.80;99.90
9730;DHT22;4904;49.152;11.004;2022-08-19T02:20:50;21.80;99.90
9730;DHT22;4904;49.152;11.004;2022-08-19T02:23:17;21.70;99.90
9730;DHT22;4904;49.152;11.004;2022-08-19T02:25:46;21.70;99.90
9730;DHT22;4904;49.152;11.004;2022-08-19T02:28:14;21.80;99.90
9730;DHT22;4904;49.152;11.004;2022-08-19T02:30:42;21.70;99.90
9730;DHT22;4904;49.152;11.004;2022-08-19T02:33:09;21.70;99.90
9730;DHT22;4904;49.152;11.004;2022-08-19T02:35:36;21.80;99.90
9730;DHT22;4904;49.152;11.004;2022-08-19T02:38:03;21.70;99.90
9730;DHT22;4904;49.152;11.004;2022-08-19T02:40:52;21.80;99.90
9730;DHT22;4904;49.152;11.004;2022-08-19T02:43:20;21.70;99.90
9730;DHT22;4904;49.152;11.004;2022-08-19T02:45:49;21.60;99.90
9730;DHT22;4904;49.152;11.004;2022-08-19T02:48:17;21.50;99.90
9730;DHT22;4904;49.152;11.004;2022-08-19T02:50:46;21.50;99.90
9730;DHT22;4904;49.152;11.004;2022-08-19T02:53:13;21.50;99.90
9730;DHT22;4904;49.152;11.004;2022-08-19T02:55:46;21.60;99.90
9730;DHT22;4904;49.152;11.004;2022-08-19T02:58:14;21.60;99.90
9730;DHT22;4904;49.152;11.004;2022-08-19T03:00:43;21.50;99.90
9730;DHT22;4904;49.152;11.004;2022-08-19T03:03:12;21.50;99.90
9730;DHT22;4904;49.152;11.004;2022-08-19T03:05:39;21.50;99.90
9730;DHT22;4904;49.152;11.004;2022-08-19T03:08:06;21.50;99.90
9730;DHT22;4904;49.152;11.004;2022-08-19T03:10:40;21.50;99.90
9730;DHT22;4904;49.152;11.004;2022-08-19T03:13:07;21.60;99.90
9730;DHT22;4904;49.152;11.004;2022-08-19T03:15:34;21.50;99.90
9730;DHT22;4904;49.152;11.004;2022-08-19T03:18:01;21.40;99.90
9730;DHT22;4904;49.152;11.004;2022-08-19T03:20:29;21.50;99.90
9730;DHT22;4904;49.152;11.004;2022-08-19T03:22:56;21.50;99.90
9730;DHT22;4904;49.152;11.004;2022-08-19T03:25:23;21.50;99.90
9730;DHT22;4904;49.152;11.004;2022-08-19T03:27:50;21.50;99.90
9730;DHT22;4904;49.152;11.004;2022-08-19T03:30:17;21.50;99.90
9730;DHT22;4904;49.152;11.004;2022-08-19T03:32:44;21.40;99.90
9730;DHT22;4904;49.152;11.004;2022-08-19T03:35:11;21.40;99.90
9730;DHT22;4904;49.152;11.004;2022-08-19T03:37:39;21.20;99.90
9730;DHT22;4904;49.152;11.004;2022-08-19T03:40:07;21.10;99.90
9730;DHT22;4904;49.152;11.004;2022-08-19T03:42:34;20.90;99.90
9730;DHT22;4904;49.152;11.004;2022-08-19T03:45:01;20.90;99.90
9730;DHT22;4904;49.152;11.004;2022-08-19T03:47:28;20.80;99.90
9730;DHT22;4904;49.152;11.004;2022-08-19T03:49:55;20.80;99.90
9730;DHT22;4904;49.152;11.004;2022-08-19T03:52:23;20.80;99.90
9730;DHT22;4904;49.152;11.004;2022-08-19T03:54:51;20.80;99.90
9730;DHT22;4904;49.152;11.004;2022-08-19T03:57:18;20.80;99.90
9730;DHT22;4904;49.152;11.004;2022-08-19T03:59:44;20.70;99.90
9730;DHT22;4904;49.152;11.004;2022-08-19T04:02:12;20.70;99.90
9730;DHT22;4904;49.152;11.004;2022-08-19T04:04:43;20.70;99.90
9730;DHT22;4904;49.152;11.004;2022-08-19T04:07:11;20.70;99.90
9730;DHT22;4904;49.152;11.004;2022-08-19T04:09:38;20.70;99.90
9730;DHT22;4904;49.152;11.004;2022-08-19T04:12:07;20.70;99.90
9730;DHT22;4904;49.152;11.004;2022-08-19T04:14:34;20.70;99.90
9730;DHT22;4904;49.152;11.004;2022-08-19T04:17:02;20.70;99.90
9730;DHT22;4904;49.152;11.004;2022-08-19T04:19:30;20.70;99.90
9730;DHT22;4904;49.152;11.004;2022-08-19T04:21:58;20.70;99.90
9730;DHT22;4904;49.152;11.004;2022-08-19T04:24:25;20.80;99.90
9730;DHT22;4904;49.152;11.004;2022-08-19T04:26:52;20.80;99.90
9730;DHT22;4904;49.152;11.004;2022-08-19T04:29:23;20.80;99.90
9730;DHT22;4904;49.152;11.004;2022-08-19T04:31:53;20.80;99.90
9730;DHT22;4904;49.152;11.004;2022-08-19T04:34:22;20.90;99.90
9730;DHT22;4904;49.152;11.004;2022-08-19T04:36:50;20.90;99.90
9730;DHT22;4904;49.152;11.004;2022-08-19T04:39:20;21.00;99.90
9730;DHT22;4904;49.152;11.004;2022-08-19T04:41:47;21.00;99.90
9730;DHT22;4904;49.152;11.004;2022-08-19T04:44:34;21.10;99.90
9730;DHT22;4904;49.152;11.004;2022-08-19T04:47:03;21.20;99.90
9730;DHT22;4904;49.152;11.004;2022-08-19T04:49:31;21.20;99.90
9730;DHT22;4904;49.152;11.004;2022-08-19T04:51:59;21.20;99.90
9730;DHT22;4904;49.152;11.004;2022-08-19T04:54:26;21.10;99.90
9730;DHT22;4904;49.152;11.004;2022-08-19T04:56:53;21.10;99.90
9730;DHT22;4904;49.152;11.004;2022-08-19T04:59:21;21.20;99.90
9730;DHT22;4904;49.152;11.004;2022-08-19T05:01:50;21.10;99.90
9730;DHT22;4904;49.152;11.004;2022-08-19T05:04:18;21.00;99.90
9730;DHT22;4904;49.152;11.004;2022-08-19T05:06:46;21.00;99.90
9730;DHT22;4904;49.152;11.004;2022-08-19T05:09:14;21.10;99.90
9730;DHT22;4904;49.152;11.004;2022-08-19T05:11:43;21.10;99.90
9730;DHT22;4904;49.152;11.004;2022-08-19T05:14:11;21.20;99.90
9730;DHT22;4904;49.152;11.004;2022-08-19T05:16:39;21.30;99.90
9730;DHT22;4904;49.152;11.004;2022-08-19T05:19:10;21.20;99.90
9730;DHT22;4904;49.152;11.004;2022-08-19T05:21:55;21.20;99.90
9730;DHT22;4904;49.152;11.004;2022-08-19T05:24:39;21.30;99.90
9730;DHT22;4904;49.152;11.004;2022-08-19T05:27:06;21.30;99.90
9730;DHT22;4904;49.152;11.004;2022-08-19T05:29:33;21.40;99.90
9730;DHT22;4904;49.152;11.004;2022-08-19T05:32:01;21.40;99.90
9730;DHT22;4904;49.152;11.004;2022-08-19T05:34:31;21.40;99.90
9730;DHT22;4904;49.152;11.004;2022-08-19T05:36:59;21.40;99.90
9730;DHT22;4904;49.152;11.004;2022-08-19T05:39:29;21.30;99.90
9730;DHT22;4904;49.152;11.004;2022-08-19T05:41:58;21.30;99.90
9730;DHT22;4904;49.152;11.004;2022-08-19T05:44:27;21.30;99.90
9730;DHT22;4904;49.152;11.004;2022-08-19T05:46:57;21.20;99.90
9730;DHT22;4904;49.152;11.004;2022-08-19T05:49:25;21.30;99.90
9730;DHT22;4904;49.152;11.004;2022-08-19T05:51:54;21.20;99.90
9730;DHT22;4904;49.152;11.004;2022-08-19T05:54:21;21.10;99.90
9730;DHT22;4904;49.152;11.004;2022-08-19T05:56:50;21.10;99.90
9730;DHT22;4904;49.152;11.004;2022-08-19T05:59:19;21.20;99.90
9730;DHT22;4904;49.152;11.004;2022-08-19T06:01:49;21.20;99.90
9730;DHT22;4904;49.152;11.004;2022-08-19T06:04:18;21.20;99.90
9730;DHT22;4904;49.152;11.004;2022-08-19T06:06:45;21.10;99.90
9730;DHT22;4904;49.152;11.004;2022-08-19T06:09:14;21.20;99.90
9730;DHT22;4904;49.152;11.004;2022-08-19T06:11:44;21.20;99.90
9730;DHT22;4904;49.152;11.004;2022-08-19T06:14:13;21.20;99.90
9730;DHT22;4904;49.152;11.004;2022-08-19T06:16:42;21.20;99.90
9730;DHT22;4904;49.152;11.004;2022-08-19T06:19:11;21.20;99.90
9730;DHT22;4904;49.152;11.004;2022-08-19T06:21:40;21.20;99.90
9730;DHT22;4904;49.152;11.004;2022-08-19T06:24:10;21.20;99.90
9730;DHT22;4904;49.152;11.004;2022-08-19T06:26:42;21.20;99.90
9730;DHT22;4904;49.152;11.004;2022-08-19T06:29:12;21.30;99.90
9730;DHT22;4904;49.152;11.004;2022-08-19T06:31:41;21.30;99.90
9730;DHT22;4904;49.152;11.004;2022-08-19T06:34:08;21.30;99.90
9730;DHT22;4904;49.152;11.004;2022-08-19T06:36:37;21.30;99.90
9730;DHT22;4904;49.152;11.004;2022-08-19T06:39:09;21.30;99.90
9730;DHT22;4904;49.152;11.004;2022-08-19T06:41:37;21.30;99.90
9730;DHT22;4904;49.152;11.004;2022-08-19T06:44:06;21.40;99.90
9730;DHT22;4904;49.152;11.004;2022-08-19T06:46:35;21.30;99.90
9730;DHT22;4904;49.152;11.004;2022-08-19T06:49:03;21.40;99.90
9730;DHT22;4904;49.152;11.004;2022-08-19T06:51:30;21.50;99.90
9730;DHT22;4904;49.152;11.004;2022-08-19T06:54:00;21.50;99.90
9730;DHT22;4904;49.152;11.004;2022-08-19T06:56:30;21.50;99.90
9730;DHT22;4904;49.152;11.004;2022-08-19T06:58:59;21.60;99.90
9730;DHT22;4904;49.152;11.004;2022-08-19T07:01:27;21.50;99.90
9730;DHT22;4904;49.152;11.004;2022-08-19T07:03:54;21.60;99.90
9730;DHT22;4904;49.152;11.004;2022-08-19T07:06:22;21.60;99.90
9730;DHT22;4904;49.152;11.004;2022-08-19T07:08:49;21.50;99.90
9730;DHT22;4904;49.152;11.004;2022-08-19T07:11:17;21.60;99.90
9730;DHT22;4904;49.152;11.004;2022-08-19T07:13:45;21.60;99.90
9730;DHT22;4904;49.152;11.004;2022-08-19T07:16:16;21.60;99.90
9730;DHT22;4904;49.152;11.004;2022-08-19T07:18:46;21.50;99.90
9730;DHT22;4904;49.152;11.004;2022-08-19T07:21:16;21.50;99.90
9730;DHT22;4904;49.152;11.004;2022-08-19T07:23:44;21.60;99.90
9730;DHT22;4904;49.152;11.004;2022-08-19T07:26:14;21.60;99.90
9730;DHT22;4904;49.152;11.004;2022-08-19T07:28:41;21.60;99.90
9730;DHT22;4904;49.152;11.004;2022-08-19T07:31:10;21.60;99.90
9730;DHT22;4904;49.152;11.004;2022-08-19T07:33:38;21.50;99.90
9730;DHT22;4904;49.152;11.004;2022-08-19T07:36:09;21.40;99.90
9730;DHT22;4904;49.152;11.004;2022-08-19T07:38:38;21.50;99.90
9730;DHT22;4904;49.152;11.004;2022-08-19T07:41:06;21.50;99.90
9730;DHT22;4904;49.152;11.004;2022-08-19T07:43:33;21.60;99.90
9730;DHT22;4904;49.152;11.004;2022-08-19T07:46:00;21.60;99.90
9730;DHT22;4904;49.152;11.004;2022-08-19T07:48:27;21.60;99.90
9730;DHT22;4904;49.152;11.004;2022-08-19T07:50:56;21.60;99.90
9730;DHT22;4904;49.152;11.004;2022-08-19T07:53:28;21.50;99.90
9730;DHT22;4904;49.152;11.004;2022-08-19T07:55:56;21.50;99.90
9730;DHT22;4904;49.152;11.004;2022-08-19T07:58:25;21.50;99.90
9730;DHT22;4904;49.152;11.004;2022-08-19T08:00:52;21.60;99.90
9730;DHT22;4904;49.152;11.004;2022-08-19T08:03:21;21.60;99.90
9730;DHT22;4904;49.152;11.004;2022-08-19T08:06:09;21.50;99.90
9730;DHT22;4904;49.152;11.004;2022-08-19T08:09:04;21.50;99.90
9730;DHT22;4904;49.152;11.004;2022-08-19T08:11:38;21.50;99.90
9730;DHT22;4904;49.152;11.004;2022-08-19T08:14:05;21.50;99.90
9730;DHT22;4904;49.152;11.004;2022-08-19T08:16:35;21.60;99.90
9730;DHT22;4904;49.152;11.004;2022-08-19T08:19:04;21.60;99.90
9730;DHT22;4904;49.152;11.004;2022-08-19T08:21:32;21.60;99.90
9730;DHT22;4904;49.152;11.004;2022-08-19T08:23:59;21.60;99.90
9730;DHT22;4904;49.152;11.004;2022-08-19T08:26:27;21.60;99.90
9730;DHT22;4904;49.152;11.004;2022-08-19T08:28:54;21.70;99.90
9730;DHT22;4904;49.152;11.004;2022-08-19T08:31:21;21.70;99.90
9730;DHT22;4904;49.152;11.004;2022-08-19T08:33:49;21.70;99.90
9730;DHT22;4904;49.152;11.004;2022-08-19T08:36:16;21.70;99.90
9730;DHT22;4904;49.152;11.004;2022-08-19T08:38:44;21.60;99.90
9730;DHT22;4904;49.152;11.004;2022-08-19T08:41:18;21.60;99.90
9730;DHT22;4904;49.152;11.004;2022-08-19T08:43:51;21.70;99.90
9730;DHT22;4904;49.152;11.004;2022-08-19T08:46:24;21.70;99.90
9730;DHT22;4904;49.152;11.004;2022-08-19T08:48:56;21.70;99.90
9730;DHT22;4904;49.152;11.004;2022-08-19T08:51:28;21.70;99.90
9730;DHT22;4904;49.152;11.004;2022-08-19T08:53:56;21.70;99.90
9730;DHT22;4904;49.152;11.004;2022-08-19T08:56:23;21.80;99.90
9730;DHT22;4904;49.152;11.004;2022-08-19T08:58:57;21.80;99.90
9730;DHT22;4904;49.152;11.004;2022-08-19T09:01:25;21.80;99.90
9730;DHT22;4904;49.152;11.004;2022-08-19T09:03:53;21.90;99.90
9730;DHT22;4904;49.152;11.004;2022-08-19T09:06:25;21.90;99.90
9730;DHT22;4904;49.152;11.004;2022-08-19T09:09:01;22.00;99.90
9730;DHT22;4904;49.152;11.004;2022-08-19T09:11:37;22.00;99.90
9730;DHT22;4904;49.152;11.004;2022-08-19T09:14:19;22.10;99.90
9730;DHT22;4904;49.152;11.004;2022-08-19T09:16:51;22.10;99.90
9730;DHT22;4904;49.152;11.004;2022-08-19T09:19:18;22.10;99.90
9730;DHT22;4904;49.152;11.004;2022-08-19T09:21:44;22.00;99.90
9730;DHT22;4904;49.152;11.004;2022-08-19T09:24:12;22.10;99.90
9730;DHT22;4904;49.152;11.004;2022-08-19T09:26:38;21.90;99.90
9730;DHT22;4904;49.152;11.004;2022-08-19T09:29:05;21.90;99.90
9730;DHT22;4904;49.152;11.004;2022-08-19T09:31:34;22.00;99.90
9730;DHT22;4904;49.152;11.004;2022-08-19T09:34:01;21.90;99.90
9730;DHT22;4904;49.152;11.004;2022-08-19T09:36:30;21.80;99.90
9730;DHT22;4904;49.152;11.004;2022-08-19T09:38:59;21.80;99.90
9730;DHT22;4904;49.152;11.004;2022-08-19T09:41:26;21.90;99.90
9730;DHT22;4904;49.152;11.004;2022-08-19T09:43:57;22.00;99.90
9730;DHT22;4904;49.152;11.004;2022-08-19T09:46:26;22.00;99.90
9730;DHT22;4904;49.152;11.004;2022-08-19T09:48:58;21.90;99.90
9730;DHT22;4904;49.152;11.004;2022-08-19T09:51:26;21.80;99.90
9730;DHT22;4904;49.152;11.004;2022-08-19T09:53:58;21.90;99.90
9730;DHT22;4904;49.152;11.004;2022-08-19T09:56:25;21.80;99.90
9730;DHT22;4904;49.152;11.004;2022-08-19T09:58:52;21.80;99.90
9730;DHT22;4904;49.152;11.004;2022-08-19T10:01:20;21.70;99.90
9730;DHT22;4904;49.152;11.004;2022-08-19T10:03:49;21.80;99.90
9730;DHT22;4904;49.152;11.004;2022-08-19T10:06:19;21.80;99.90
9730;DHT22;4904;49.152;11.004;2022-08-19T10:08:47;21.80;99.90
9730;DHT22;4904;49.152;11.004;2022-08-19T10:11:14;21.70;99.90
9730;DHT22;4904;49.152;11.004;2022-08-19T10:13:43;21.70;99.90
9730;DHT22;4904;49.152;11.004;2022-08-19T10:16:12;21.80;99.90
9730;DHT22;4904;49.152;11.004;2022-08-19T10:18:40;21.80;99.90
9730;DHT22;4904;49.152;11.004;2022-08-19T10:21:09;21.80;99.90
9730;DHT22;4904;49.152;11.004;2022-08-19T10:23:40;21.90;99.90
9730;DHT22;4904;49.152;11.004;2022-08-19T10:26:09;21.80;99.90
9730;DHT22;4904;49.152;11.004;2022-08-19T10:28:37;21.80;99.90
9730;DHT22;4904;49.152;11.004;2022-08-19T10:31:05;21.80;99.90
9730;DHT22;4904;49.152;11.004;2022-08-19T10:33:33;21.60;99.90
9730;DHT22;4904;49.152;11.004;2022-08-19T10:36:02;21.70;99.90
9730;DHT22;4904;49.152;11.004;2022-08-19T10:38:30;21.70;99.90
9730;DHT22;4904;49.152;11.004;2022-08-19T10:41:05;21.80;99.90
9730;DHT22;4904;49.152;11.004;2022-08-19T10:43:32;21.80;99.90
9730;DHT22;4904;49.152;11.004;2022-08-19T10:46:02;21.80;99.90
9730;DHT22;4904;49.152;11.004;2022-08-19T10:48:31;21.70;99.90
9730;DHT22;4904;49.152;11.004;2022-08-19T10:50:58;21.70;99.90
9730;DHT22;4904;49.152;11.004;2022-08-19T10:53:43;21.70;99.90
9730;DHT22;4904;49.152;11.004;2022-08-19T10:56:11;21.70;99.90
9730;DHT22;4904;49.152;11.004;2022-08-19T10:58:56;21.60;99.90
9730;DHT22;4904;49.152;11.004;2022-08-19T11:01:23;21.60;99.90
9730;DHT22;4904;49.152;11.004;2022-08-19T11:03:50;21.60;99.90
9730;DHT22;4904;49.152;11.004;2022-08-19T11:06:18;21.60;99.90
9730;DHT22;4904;49.152;11.004;2022-08-19T11:08:45;21.70;99.90
9730;DHT22;4904;49.152;11.004;2022-08-19T11:11:14;21.70;99.90
9730;DHT22;4904;49.152;11.004;2022-08-19T11:13:41;21.50;99.90
9730;DHT22;4904;49.152;11.004;2022-08-19T11:16:12;21.50;99.90
9730;DHT22;4904;49.152;11.004;2022-08-19T11:18:42;21.40;99.90
9730;DHT22;4904;49.152;11.004;2022-08-19T11:21:12;21.40;99.90
9730;DHT22;4904;49.152;11.004;2022-08-19T11:23:40;21.40;99.90
9730;DHT22;4904;49.152;11.004;2022-08-19T11:26:07;21.40;99.90
9730;DHT22;4904;49.152;11.004;2022-08-19T11:28:36;21.40;99.90
9730;DHT22;4904;49.152;11.004;2022-08-19T11:31:03;21.30;99.90
9730;DHT22;4904;49.152;11.004;2022-08-19T11:33:30;21.30;99.90
9730;DHT22;4904;49.152;11.004;2022-08-19T11:35:58;21.30;99.90
9730;DHT22;4904;49.152;11.004;2022-08-19T11:38:26;21.40;99.90
9730;DHT22;4904;49.152;11.004;2022-08-19T11:40:57;21.30;99.90
9730;DHT22;4904;49.152;11.004;2022-08-19T11:43:25;21.40;99.90
9730;DHT22;4904;49.152;11.004;2022-08-19T11:45:54;21.30;99.90
9730;DHT22;4904;49.152;11.004;2022-08-19T11:48:21;21.30;99.90
9730;DHT22;4904;49.152;11.004;2022-08-19T11:50:49;21.20;99.90
9730;DHT22;4904;49.152;11.004;2022-08-19T11:53:16;21.20;99.90
9730;DHT22;4904;49.152;11.004;2022-08-19T11:55:43;21.20;99.90
9730;DHT22;4904;49.152;11.004;2022-08-19T11:58:11;21.10;99.90
9730;DHT22;4904;49.152;11.004;2022-08-19T12:00:38;21.00;99.90
9730;DHT22;4904;49.152;11.004;2022-08-19T12:03:07;20.90;99.90
9730;DHT22;4904;49.152;11.004;2022-08-19T12:05:36;20.90;99.90
9730;DHT22;4904;49.152;11.004;2022-08-19T12:08:03;20.70;99.90
9730;DHT22;4904;49.152;11.004;2022-08-19T12:10:30;20.70;99.90
9730;DHT22;4904;49.152;11.004;2022-08-19T12:12:57;20.80;99.90
9730;DHT22;4904;49.152;11.004;2022-08-19T12:15:24;20.70;99.90
9730;DHT22;4904;49.152;11.004;2022-08-19T12:17:53;20.70;99.90
9730;DHT22;4904;49.152;11.004;2022-08-19T12:20:23;20.80;99.90
9730;DHT22;4904;49.152;11.004;2022-08-19T12:22:52;20.80;99.90
9730;DHT22;4904;49.152;11.004;2022-08-19T12:25:19;20.80;99.90
9730;DHT22;4904;49.152;11.004;2022-08-19T12:27:46;20.80;99.90
9730;DHT22;4904;49.152;11.004;2022-08-19T12:30:13;20.80;99.90
9730;DHT22;4904;49.152;11.004;2022-08-19T12:32:40;20.80;99.90
9730;DHT22;4904;49.152;11.004;2022-08-19T12:35:08;20.80;99.90
9730;DHT22;4904;49.152;11.004;2022-08-19T12:37:38;20.80;99.90
9730;DHT22;4904;49.152;11.004;2022-08-19T12:40:08;20.80;99.90
9730;DHT22;4904;49.152;11.004;2022-08-19T12:42:37;20.80;99.90
9730;DHT22;4904;49.152;11.004;2022-08-19T12:45:07;20.90;99.90
9730;DHT22;4904;49.152;11.004;2022-08-19T12:47:34;20.80;99.90
9730;DHT22;4904;49.152;11.004;2022-08-19T12:50:01;20.90;99.90
9730;DHT22;4904;49.152;11.004;2022-08-19T12:52:28;20.90;99.90
9730;DHT22;4904;49.152;11.004;2022-08-19T12:54:56;20.80;99.90
9730;DHT22;4904;49.152;11.004;2022-08-19T12:57:25;20.90;99.90
9730;DHT22;4904;49.152;11.004;2022-08-19T12:59:52;20.90;99.90
9730;DHT22;4904;49.152;11.004;2022-08-19T13:02:20;20.90;99.90
9730;DHT22;4904;49.152;11.004;2022-08-19T13:04:48;20.90;99.90
9730;DHT22;4904;49.152;11.004;2022-08-19T13:07:15;21.00;99.90
9730;DHT22;4904;49.152;11.004;2022-08-19T13:09:42;20.90;99.90
9730;DHT22;4904;49.152;11.004;2022-08-19T13:12:10;21.00;99.90
9730;DHT22;4904;49.152;11.004;2022-08-19T13:14:38;20.90;99.90
9730;DHT22;4904;49.152;11.004;2022-08-19T13:17:05;21.00;99.90
9730;DHT22;4904;49.152;11.004;2022-08-19T13:19:32;20.90;99.90
9730;DHT22;4904;49.152;11.004;2022-08-19T13:21:59;20.90;99.90
9730;DHT22;4904;49.152;11.004;2022-08-19T13:24:26;20.90;99.90
9730;DHT22;4904;49.152;11.004;2022-08-19T13:26:53;20.80;99.90
9730;DHT22;4904;49.152;11.004;2022-08-19T13:29:21;20.80;99.90
9730;DHT22;4904;49.152;11.004;2022-08-19T13:32:06;20.80;99.90
9730;DHT22;4904;49.152;11.004;2022-08-19T13:34:50;20.90;99.90
9730;DHT22;4904;49.152;11.004;2022-08-19T13:37:17;20.90;99.90
9730;DHT22;4904;49.152;11.004;2022-08-19T13:40:05;20.70;99.90
9730;DHT22;4904;49.152;11.004;2022-08-19T13:42:33;20.80;99.90
9730;DHT22;4904;49.152;11.004;2022-08-19T13:45:01;20.80;99.90
9730;DHT22;4904;49.152;11.004;2022-08-19T13:47:28;20.80;99.90
9730;DHT22;4904;49.152;11.004;2022-08-19T13:49:55;20.80;99.90
9730;DHT22;4904;49.152;11.004;2022-08-19T13:52:22;20.80;99.90
9730;DHT22;4904;49.152;11.004;2022-08-19T13:54:50;20.80;99.90
9730;DHT22;4904;49.152;11.004;2022-08-19T13:57:17;20.90;99.90
9730;DHT22;4904;49.152;11.004;2022-08-19T13:59:44;20.80;99.90
9730;DHT22;4904;49.152;11.004;2022-08-19T14:02:12;20.80;99.90
9730;DHT22;4904;49.152;11.004;2022-08-19T14:04:39;20.70;99.90
9730;DHT22;4904;49.152;11.004;2022-08-19T14:07:06;20.50;99.90
9730;DHT22;4904;49.152;11.004;2022-08-19T14:09:33;20.50;99.90
9730;DHT22;4904;49.152;11.004;2022-08-19T14:12:00;20.50;99.90
9730;DHT22;4904;49.152;11.004;2022-08-19T14:14:27;20.50;99.90
9730;DHT22;4904;49.152;11.004;2022-08-19T14:16:54;20.60;99.90
9730;DHT22;4904;49.152;11.004;2022-08-19T14:19:22;20.60;99.90
9730;DHT22;4904;49.152;11.004;2022-08-19T14:21:49;20.60;99.90
9730;DHT22;4904;49.152;11.004;2022-08-19T14:24:16;20.60;99.90
9730;DHT22;4904;49.152;11.004;2022-08-19T14:26:43;20.50;99.90
9730;DHT22;4904;49.152;11.004;2022-08-19T14:29:10;20.50;99.90
9730;DHT22;4904;49.152;11.004;2022-08-19T14:31:38;20.50;99.90
9730;DHT22;4904;49.152;11.004;2022-08-19T14:34:08;20.50;99.90
9730;DHT22;4904;49.152;11.004;2022-08-19T14:36:37;20.60;99.90
9730;DHT22;4904;49.152;11.004;2022-08-19T14:39:04;20.40;99.90
9730;DHT22;4904;49.152;11.004;2022-08-19T14:41:31;20.40;99.90
9730;DHT22;4904;49.152;11.004;2022-08-19T14:43:59;20.40;99.90
9730;DHT22;4904;49.152;11.004;2022-08-19T14:46:28;20.30;99.90
9730;DHT22;4904;49.152;11.004;2022-08-19T14:48:55;20.20;99.90
9730;DHT22;4904;49.152;11.004;2022-08-19T14:51:24;20.10;99.90
9730;DHT22;4904;49.152;11.004;2022-08-19T14:53:53;20.00;99.90
9730;DHT22;4904;49.152;11.004;2022-08-19T14:56:32;19.80;99.90
9730;DHT22;4904;49.152;11.004;2022-08-19T14:59:02;19.70;99.90
9730;DHT22;4904;49.152;11.004;2022-08-19T15:01:29;19.80;99.90
9730;DHT22;4904;49.152;11.004;2022-08-19T15:03:56;19.70;99.90
9730;DHT22;4904;49.152;11.004;2022-08-19T15:06:24;19.70;99.90
9730;DHT22;4904;49.152;11.004;2022-08-19T15:08:53;19.60;99.90
9730;DHT22;4904;49.152;11.004;2022-08-19T15:11:22;19.60;99.90
9730;DHT22;4904;49.152;11.004;2022-08-19T15:13:54;19.60;99.90
9730;DHT22;4904;49.152;11.004;2022-08-19T15:16:22;19.40;99.90
9730;DHT22;4904;49.152;11.004;2022-08-19T15:18:53;19.20;99.90
9730;DHT22;4904;49.152;11.004;2022-08-19T15:21:21;19.20;99.90
9730;DHT22;4904;49.152;11.004;2022-08-19T15:23:49;19.30;99.90
9730;DHT22;4904;49.152;11.004;2022-08-19T15:26:19;19.20;99.90
9730;DHT22;4904;49.152;11.004;2022-08-19T15:28:46;19.20;99.90
9730;DHT22;4904;49.152;11.004;2022-08-19T15:31:17;19.30;99.90
9730;DHT22;4904;49.152;11.004;2022-08-19T15:33:45;19.30;99.90
9730;DHT22;4904;49.152;11.004;2022-08-19T15:36:14;19.30;99.90
9730;DHT22;4904;49.152;11.004;2022-08-19T15:38:41;19.20;99.90
9730;DHT22;4904;49.152;11.004;2022-08-19T15:41:18;19.20;99.90
9730;DHT22;4904;49.152;11.004;2022-08-19T15:43:55;19.20;99.90
9730;DHT22;4904;49.152;11.004;2022-08-19T15:46:26;19.10;99.90
9730;DHT22;4904;49.152;11.004;2022-08-19T15:48:54;19.10;99.90
9730;DHT22;4904;49.152;11.004;2022-08-19T15:51:22;19.10;99.90
9730;DHT22;4904;49.152;11.004;2022-08-19T15:53:50;19.00;99.90
9730;DHT22;4904;49.152;11.004;2022-08-19T15:56:19;19.00;99.90